createdAt,value
2022-09-27T00:00:16.008Z,13.27
2022-09-27T00:02:45.397Z,14.43
2022-09-27T00:05:14.684Z,14.73
2022-09-27T00:07:44.793Z,11.45
2022-09-27T00:10:14.707Z,13.90
2022-09-27T00:12:44.208Z,15.30
2022-09-27T00:15:14.849Z,11.68
2022-09-27T00:17:44.101Z,20.80
2022-09-27T00:20:13.451Z,17.25
2022-09-27T00:22:42.561Z,14.88
2022-09-27T00:25:12.552Z,15.75
2022-09-27T00:27:41.850Z,15.23
2022-09-27T00:30:15.032Z,16.48
2022-09-27T00:32:44.200Z,17.63
2022-09-27T00:38:20.173Z,12.60
2022-09-27T00:40:50.048Z,11.40
2022-09-27T00:43:22.410Z,16.10
2022-09-27T00:45:58.008Z,13.05
2022-09-27T00:48:32.715Z,11.65
2022-09-27T00:51:06.596Z,12.88
2022-09-27T00:53:41.072Z,14.82
2022-09-27T00:56:14.850Z,15.50
2022-09-27T00:58:58.463Z,11.45
2022-09-27T01:01:30.698Z,12.93
2022-09-27T01:04:05.053Z,15.48
2022-09-27T01:06:34.737Z,12.60
2022-09-27T01:09:04.136Z,14.50
2022-09-27T01:11:43.827Z,15.60
2022-09-27T01:14:38.320Z,14.48
2022-09-27T01:17:32.230Z,20.45
2022-09-27T01:20:31.361Z,19.27
2022-09-27T01:23:30.322Z,20.05
2022-09-27T01:26:15.048Z,18.88
2022-09-27T01:29:01.915Z,20.02
2022-09-27T01:31:38.257Z,20.52
2022-09-27T01:34:18.156Z,16.77
2022-09-27T01:36:58.932Z,21.05
2022-09-27T01:39:41.346Z,17.73
2022-09-27T01:42:43.307Z,17.67
2022-09-27T01:45:21.377Z,18.85
2022-09-27T01:48:10.970Z,13.20
2022-09-27T01:51:13.748Z,11.68
2022-09-27T01:53:53.361Z,12.93
2022-09-27T01:56:45.226Z,15.63
2022-09-27T01:59:29.840Z,13.50
2022-09-27T02:02:28.544Z,15.68
2022-09-27T02:05:21.534Z,18.17
2022-09-27T02:08:00.187Z,17.80
2022-09-27T02:10:35.124Z,19.88
2022-09-27T02:13:23.795Z,18.13
2022-09-27T02:16:12.935Z,17.77
2022-09-27T02:18:57.077Z,20.67
2022-09-27T02:21:38.366Z,19.13
2022-09-27T02:24:14.080Z,22.70
2022-09-27T02:26:51.345Z,21.08
2022-09-27T02:29:27.299Z,18.67
2022-09-27T02:31:57.544Z,19.00
2022-09-27T02:34:30.610Z,22.90
2022-09-27T02:37:02.093Z,24.67
2022-09-27T02:39:31.527Z,23.20
2022-09-27T02:42:07.246Z,22.30
2022-09-27T02:44:39.125Z,26.08
2022-09-27T02:47:39.425Z,21.40
2022-09-27T02:50:31.167Z,21.95
2022-09-27T02:53:13.286Z,23.98
2022-09-27T02:56:01.548Z,23.10
2022-09-27T02:59:04.957Z,24.85
2022-09-27T03:02:12.505Z,22.90
2022-09-27T03:05:11.154Z,24.90
2022-09-27T03:07:41.135Z,25.63
2022-09-27T03:10:19.656Z,24.83
2022-09-27T03:12:49.494Z,24.95
2022-09-27T03:15:27.174Z,21.98
2022-09-27T03:18:03.109Z,20.70
2022-09-27T03:20:58.165Z,21.42
2022-09-27T03:23:28.787Z,30.98
2022-09-27T03:25:59.845Z,28.05
2022-09-27T03:28:29.966Z,30.83
2022-09-27T03:31:00.227Z,27.00
2022-09-27T03:33:52.607Z,25.83
2022-09-27T03:36:22.413Z,26.70
2022-09-27T03:38:51.698Z,28.20
2022-09-27T03:41:24.088Z,26.92
2022-09-27T03:43:56.707Z,28.08
2022-09-27T03:46:28.595Z,29.98
2022-09-27T03:49:00.156Z,26.33
2022-09-27T03:51:29.555Z,39.22
2022-09-27T03:53:58.915Z,34.55
2022-09-27T03:56:30.748Z,38.92
2022-09-27T03:59:00.237Z,40.83
2022-09-27T04:01:31.546Z,36.88
2022-09-27T04:04:18.797Z,34.95
2022-09-27T04:06:49.226Z,33.97
2022-09-27T04:09:19.608Z,33.25
2022-09-27T04:12:00.641Z,35.67
2022-09-27T04:14:30.088Z,48.75
2022-09-27T04:17:18.988Z,45.35
2022-09-27T04:20:10.128Z,35.30
2022-09-27T04:22:44.221Z,31.80
2022-09-27T04:25:40.988Z,30.38
2022-09-27T04:28:40.883Z,27.65
2022-09-27T04:31:10.339Z,27.08
2022-09-27T04:34:14.973Z,31.15
2022-09-27T04:36:43.293Z,34.80
2022-09-27T04:39:17.057Z,24.67
2022-09-27T04:41:48.831Z,32.72
2022-09-27T04:44:19.619Z,48.65
2022-09-27T04:46:52.633Z,33.22
2022-09-27T04:49:31.286Z,34.50
2022-09-27T04:52:00.910Z,37.00
2022-09-27T04:54:30.586Z,32.03
2022-09-27T04:57:13.151Z,27.60
2022-09-27T04:59:44.820Z,27.48
2022-09-27T05:02:15.861Z,24.35
2022-09-27T05:05:06.868Z,27.40
2022-09-27T05:07:40.619Z,26.58
2022-09-27T05:10:15.250Z,23.33
2022-09-27T05:12:44.699Z,24.85
2022-09-27T05:15:21.947Z,25.45
2022-09-27T05:18:30.200Z,24.63
2022-09-27T05:21:28.501Z,25.80
2022-09-27T05:23:58.118Z,23.35
2022-09-27T05:26:27.465Z,26.00
2022-09-27T05:28:56.862Z,24.10
2022-09-27T05:31:28.153Z,22.25
2022-09-27T05:33:57.752Z,24.15
2022-09-27T05:36:39.542Z,27.42
2022-09-27T05:39:09.132Z,26.33
2022-09-27T05:41:38.869Z,22.38
2022-09-27T05:44:10.595Z,23.70
2022-09-27T05:46:48.286Z,24.75
2022-09-27T05:49:17.855Z,22.42
2022-09-27T05:51:47.558Z,26.17
2022-09-27T05:54:16.974Z,26.17
2022-09-27T05:56:46.652Z,25.80
2022-09-27T05:59:33.145Z,27.02
2022-09-27T06:02:24.001Z,27.45
2022-09-27T06:05:11.764Z,29.88
2022-09-27T06:10:36.811Z,28.17
2022-09-27T06:13:12.318Z,33.92
2022-09-27T06:15:47.332Z,31.92
2022-09-27T06:18:18.431Z,35.90
2022-09-27T06:20:50.985Z,31.33
2022-09-27T06:23:22.537Z,28.90
2022-09-27T06:25:53.823Z,31.30
2022-09-27T06:28:26.653Z,32.03
2022-09-27T06:31:00.638Z,28.70
2022-09-27T06:33:52.352Z,30.92
2022-09-27T06:36:21.888Z,27.40
2022-09-27T06:38:51.218Z,27.20
2022-09-27T06:41:24.494Z,29.42
2022-09-27T06:44:18.086Z,28.65
2022-09-27T06:47:05.937Z,28.80
2022-09-27T06:49:54.968Z,31.10
2022-09-27T06:52:31.253Z,28.23
2022-09-27T06:55:00.576Z,26.48
2022-09-27T06:57:47.362Z,28.27
2022-09-27T07:00:27.746Z,24.27
2022-09-27T07:03:36.532Z,25.77
2022-09-27T07:06:42.252Z,20.25
2022-09-27T07:11:50.491Z,24.70
2022-09-27T07:14:20.795Z,25.48
2022-09-27T07:16:51.080Z,22.02
2022-09-27T07:19:21.425Z,20.52
2022-09-27T07:21:55.681Z,20.92
2022-09-27T07:24:26.097Z,20.30
2022-09-27T07:26:55.690Z,21.60
2022-09-27T07:29:25.960Z,20.15
2022-09-27T07:31:56.871Z,22.13
2022-09-27T07:34:26.455Z,19.80
2022-09-27T07:37:00.503Z,24.65
2022-09-27T07:39:31.038Z,25.15
2022-09-27T07:42:04.221Z,23.95
2022-09-27T07:44:33.822Z,22.40
2022-09-27T07:47:32.530Z,18.38
2022-09-27T07:50:09.698Z,16.98
2022-09-27T07:52:59.318Z,18.08
2022-09-27T07:55:37.018Z,15.73
2022-09-27T07:58:13.984Z,15.73
2022-09-27T08:00:44.567Z,16.55
2022-09-27T08:03:17.691Z,17.38
2022-09-27T08:05:49.861Z,17.70
2022-09-27T08:08:21.016Z,15.77
2022-09-27T08:10:52.523Z,14.52
2022-09-27T08:13:22.641Z,16.05
2022-09-27T08:15:54.986Z,18.98
2022-09-27T08:18:26.083Z,14.80
2022-09-27T08:21:01.403Z,17.80
2022-09-27T08:23:43.157Z,13.82
2022-09-27T08:26:32.406Z,18.73
2022-09-27T08:29:14.226Z,22.02
2022-09-27T08:31:53.992Z,16.33
2022-09-27T08:34:24.361Z,15.90
2022-09-27T08:36:54.414Z,15.50
2022-09-27T08:39:25.486Z,17.05
2022-09-27T08:42:03.828Z,13.70
2022-09-27T08:44:44.466Z,11.88
2022-09-27T08:47:20.765Z,10.98
2022-09-27T08:49:57.404Z,12.13
2022-09-27T08:52:32.802Z,8.88
2022-09-27T08:55:29.089Z,8.88
2022-09-27T08:58:01.280Z,10.02
2022-09-27T09:00:32.657Z,7.90
2022-09-27T09:03:03.955Z,8.30
2022-09-27T09:05:38.272Z,8.95
2022-09-27T09:08:32.773Z,8.25
2022-09-27T09:11:31.207Z,7.60
2022-09-27T09:14:24.914Z,8.13
2022-09-27T09:17:06.154Z,7.88
2022-09-27T09:20:02.481Z,7.75
2022-09-27T09:22:56.900Z,9.20
2022-09-27T09:25:36.380Z,8.93
2022-09-27T09:28:30.521Z,7.82
2022-09-27T09:31:11.833Z,8.32
2022-09-27T09:33:47.722Z,10.15
2022-09-27T09:36:28.720Z,7.28
2022-09-27T09:39:03.861Z,7.75
2022-09-27T09:41:40.565Z,7.93
2022-09-27T09:44:21.215Z,7.40
2022-09-27T09:46:55.677Z,7.43
2022-09-27T09:49:31.829Z,8.82
2022-09-27T09:52:09.071Z,7.63
2022-09-27T09:54:44.252Z,7.20
2022-09-27T09:57:18.132Z,11.52
2022-09-27T09:59:54.587Z,8.63
2022-09-27T10:02:33.359Z,8.50
2022-09-27T10:05:17.965Z,7.63
2022-09-27T10:07:51.728Z,8.32
2022-09-27T10:10:22.996Z,9.95
2022-09-27T10:13:04.786Z,8.02
2022-09-27T10:15:39.783Z,7.53
2022-09-27T10:18:18.998Z,7.60
2022-09-27T10:20:53.936Z,7.50
2022-09-27T10:23:26.673Z,8.13
2022-09-27T10:26:21.629Z,8.65
2022-09-27T10:28:52.376Z,8.48
2022-09-27T10:31:38.885Z,7.78
2022-09-27T10:34:31.880Z,8.70
2022-09-27T10:37:19.053Z,8.55
2022-09-27T10:39:59.870Z,7.60
2022-09-27T10:42:38.707Z,9.90
2022-09-27T10:45:29.262Z,8.10
2022-09-27T10:48:23.691Z,9.32
2022-09-27T10:51:01.623Z,11.35
2022-09-27T10:53:52.175Z,4.90
2022-09-27T10:56:31.979Z,3.17
2022-09-27T10:59:02.977Z,9.18
2022-09-27T11:01:45.470Z,4.97
2022-09-27T11:05:11.239Z,8.15
2022-09-27T11:07:52.788Z,2.58
2022-09-27T11:10:28.820Z,3.40
2022-09-27T11:13:13.209Z,5.38
2022-09-27T11:16:09.953Z,1.77
2022-09-27T11:18:50.556Z,2.80
2022-09-27T11:21:31.927Z,2.75
2022-09-27T11:24:22.903Z,4.22
2022-09-27T11:27:05.791Z,3.67
2022-09-27T11:29:53.294Z,6.90
2022-09-27T11:33:11.141Z,4.88
2022-09-27T11:36:00.226Z,5.23
2022-09-27T11:38:52.681Z,2.90
2022-09-27T11:41:48.327Z,9.73
2022-09-27T11:44:48.379Z,2.85
2022-09-27T11:47:34.909Z,2.50
2022-09-27T11:50:47.952Z,2.03
2022-09-27T11:53:34.756Z,4.10
2022-09-27T11:56:21.425Z,2.13
2022-09-27T11:59:09.835Z,1.55
2022-09-27T12:01:51.420Z,0.85
2022-09-27T12:04:47.536Z,1.80
2022-09-27T12:07:25.208Z,3.88
2022-09-27T12:10:00.972Z,2.85
2022-09-27T12:12:36.608Z,3.03
2022-09-27T12:15:14.375Z,1.52
2022-09-27T12:17:49.095Z,2.45
2022-09-27T12:20:24.606Z,1.70
2022-09-27T12:23:00.677Z,2.97
2022-09-27T12:25:50.879Z,2.78
2022-09-27T12:28:37.072Z,2.65
2022-09-27T12:34:19.873Z,6.38
2022-09-27T12:37:00.975Z,2.35
2022-09-27T12:39:43.094Z,3.08
2022-09-27T12:42:27.104Z,3.35
2022-09-27T12:45:03.497Z,3.10
2022-09-27T12:47:57.823Z,7.93
2022-09-27T12:50:36.931Z,6.93
2022-09-27T12:53:23.391Z,3.33
2022-09-27T12:56:36.530Z,3.15
2022-09-27T12:59:29.456Z,6.55
2022-09-27T13:03:03.908Z,3.92
2022-09-27T13:06:14.233Z,10.02
2022-09-27T13:09:37.924Z,2.67
2022-09-27T13:12:12.188Z,5.53
2022-09-27T13:15:00.101Z,2.20
2022-09-27T13:17:56.223Z,4.85
2022-09-27T13:20:49.408Z,4.97
2022-09-27T13:23:53.164Z,3.67
2022-09-27T13:26:53.070Z,3.05
2022-09-27T13:29:34.377Z,2.85
2022-09-27T13:32:22.503Z,5.97
2022-09-27T13:35:21.599Z,3.88
2022-09-27T13:38:23.961Z,3.25
2022-09-27T13:40:56.946Z,2.35
2022-09-27T13:43:50.700Z,6.50
2022-09-27T13:46:52.977Z,8.02
2022-09-27T13:49:31.603Z,2.75
2022-09-27T13:52:26.414Z,2.20
2022-09-27T13:55:45.877Z,5.07
2022-09-27T13:58:48.179Z,2.10
2022-09-27T14:01:55.657Z,2.45
2022-09-27T14:04:37.245Z,3.22
2022-09-27T14:07:06.985Z,2.00
2022-09-27T14:09:42.589Z,5.45
2022-09-27T14:12:35.918Z,3.60
2022-09-27T14:15:11.587Z,4.93
2022-09-27T14:17:45.968Z,3.70
2022-09-27T14:20:38.913Z,3.10
2022-09-27T14:23:19.860Z,2.60
2022-09-27T14:25:55.388Z,5.43
2022-09-27T14:28:28.646Z,14.07
2022-09-27T14:31:14.902Z,5.75
2022-09-27T14:34:10.223Z,4.70
2022-09-27T14:37:04.026Z,4.97
2022-09-27T14:39:39.642Z,5.47
2022-09-27T14:42:28.756Z,3.55
2022-09-27T14:45:04.633Z,4.40
2022-09-27T14:47:34.360Z,5.10
2022-09-27T14:50:19.031Z,8.20
2022-09-27T14:52:49.922Z,4.25
2022-09-27T14:55:23.139Z,12.38
2022-09-27T14:57:55.919Z,7.45
2022-09-27T15:00:29.269Z,6.90
2022-09-27T15:03:00.257Z,4.18
2022-09-27T15:05:32.224Z,4.15
2022-09-27T15:08:05.983Z,3.55
2022-09-27T15:13:42.353Z,4.88
2022-09-27T15:16:20.099Z,8.57
2022-09-27T15:18:51.389Z,6.95
2022-09-27T15:21:31.074Z,9.00
2022-09-27T15:24:03.772Z,7.10
2022-09-27T15:26:39.406Z,6.25
2022-09-27T15:29:20.398Z,4.70
2022-09-27T15:32:00.940Z,5.50
2022-09-27T15:34:30.683Z,7.45
2022-09-27T15:37:03.533Z,7.07
2022-09-27T15:39:35.358Z,6.57
2022-09-27T15:42:13.581Z,7.40
2022-09-27T15:44:49.661Z,6.85
2022-09-27T15:47:50.804Z,7.82
2022-09-27T15:50:41.174Z,5.43
2022-09-27T15:53:11.443Z,7.82
2022-09-27T15:55:45.678Z,9.43
2022-09-27T15:58:20.267Z,6.38
2022-09-27T16:00:56.237Z,7.82
2022-09-27T16:03:27.835Z,4.90
2022-09-27T16:06:05.233Z,9.43
2022-09-27T16:11:05.839Z,9.80
2022-09-27T16:13:35.981Z,10.57
2022-09-27T16:16:07.504Z,8.88
2022-09-27T16:18:36.709Z,8.00
2022-09-27T16:21:06.538Z,5.93
2022-09-27T16:23:36.644Z,7.40
2022-09-27T16:26:06.591Z,10.88
2022-09-27T16:28:36.826Z,5.13
2022-09-27T16:31:10.239Z,6.90
2022-09-27T16:33:40.523Z,18.65
2022-09-27T16:36:14.628Z,32.92
2022-09-27T16:38:44.463Z,41.10
2022-09-27T16:41:13.606Z,28.35
2022-09-27T16:43:42.873Z,24.45
2022-09-27T16:46:16.009Z,14.80
2022-09-27T16:48:45.492Z,15.18
2022-09-27T16:51:36.129Z,11.07
2022-09-27T16:54:09.644Z,13.52
2022-09-27T16:56:38.865Z,16.90
2022-09-27T16:59:07.986Z,11.43
2022-09-27T17:01:40.741Z,13.18
2022-09-27T17:04:11.278Z,9.00
2022-09-27T17:06:40.445Z,9.70
2022-09-27T17:09:12.086Z,8.23
2022-09-27T17:11:42.489Z,18.02
2022-09-27T17:14:14.448Z,7.07
2022-09-27T17:16:47.528Z,9.68
2022-09-27T17:19:18.558Z,7.70
2022-09-27T17:21:49.160Z,9.50
2022-09-27T17:24:18.742Z,6.78
2022-09-27T17:26:48.698Z,10.38
2022-09-27T17:29:18.342Z,11.77
2022-09-27T17:31:49.167Z,11.30
2022-09-27T17:34:19.018Z,12.45
2022-09-27T17:36:51.764Z,16.40
2022-09-27T17:39:22.874Z,14.02
2022-09-27T17:41:52.653Z,14.07
2022-09-27T17:44:23.802Z,18.85
2022-09-27T17:47:15.573Z,16.30
2022-09-27T17:50:02.110Z,15.80
2022-09-27T17:52:32.829Z,12.73
2022-09-27T17:55:02.050Z,8.93
2022-09-27T17:57:31.889Z,13.65
2022-09-27T18:00:01.301Z,9.57
2022-09-27T18:02:31.911Z,8.00
2022-09-27T18:05:02.531Z,8.43
2022-09-27T18:07:32.421Z,9.07
2022-09-27T18:10:04.507Z,14.90
2022-09-27T18:12:34.895Z,23.20
2022-09-27T18:15:04.146Z,13.35
2022-09-27T18:17:40.556Z,17.10
2022-09-27T18:20:13.845Z,16.40
2022-09-27T18:22:43.267Z,34.45
2022-09-27T18:25:16.545Z,29.60
2022-09-27T18:27:50.141Z,26.08
2022-09-27T18:30:19.992Z,24.27
2022-09-27T18:32:53.805Z,26.67
2022-09-27T18:35:24.793Z,19.52
2022-09-27T18:37:57.459Z,14.90
2022-09-27T18:40:54.686Z,14.57
2022-09-27T18:43:26.029Z,11.82
2022-09-27T18:46:07.754Z,13.60
2022-09-27T18:48:52.611Z,13.13
2022-09-27T18:51:27.026Z,13.15
2022-09-27T18:53:57.993Z,23.38
2022-09-27T18:56:28.548Z,13.63
2022-09-27T18:58:58.821Z,97.57
2022-09-27T19:01:31.407Z,63.40
2022-09-27T19:04:03.032Z,38.28
2022-09-27T19:06:32.452Z,37.85
2022-09-27T19:09:03.791Z,24.92
2022-09-27T19:11:36.613Z,29.55
2022-09-27T19:14:05.980Z,26.30
2022-09-27T19:16:37.267Z,19.73
2022-09-27T19:19:11.430Z,21.40
2022-09-27T19:21:41.918Z,28.80
2022-09-27T19:24:11.910Z,20.42
2022-09-27T19:26:41.445Z,22.02
2022-09-27T19:29:10.986Z,18.52
2022-09-27T19:31:41.212Z,20.23
2022-09-27T19:34:13.414Z,21.23
2022-09-27T19:36:42.856Z,25.63
2022-09-27T19:39:12.174Z,23.95
2022-09-27T19:41:41.599Z,22.48
2022-09-27T19:44:11.052Z,25.75
2022-09-27T19:46:40.572Z,22.60
2022-09-27T19:49:09.822Z,25.77
2022-09-27T19:51:40.483Z,31.20
2022-09-27T19:54:12.930Z,53.17
2022-09-27T19:56:43.250Z,84.38
2022-09-27T19:59:15.255Z,113.68
2022-09-27T20:01:44.560Z,51.55
2022-09-27T20:04:16.666Z,51.65
2022-09-27T20:06:48.716Z,40.63
2022-09-27T20:09:17.933Z,174.43
2022-09-27T20:11:49.890Z,45.03
2022-09-27T20:14:19.728Z,42.15
2022-09-27T20:16:50.945Z,25.20
2022-09-27T20:19:22.478Z,118.13
2022-09-27T20:21:54.805Z,152.40
2022-09-27T20:24:25.158Z,98.15
2022-09-27T20:26:54.675Z,40.63
2022-09-27T20:29:23.783Z,96.70
2022-09-27T20:32:15.878Z,28.52
2022-09-27T20:34:43.215Z,28.90
2022-09-27T20:37:14.676Z,86.20
2022-09-27T20:39:43.814Z,126.82
2022-09-27T20:42:12.977Z,128.73
2022-09-27T20:44:42.048Z,74.13
2022-09-27T20:47:11.123Z,41.85
2022-09-27T20:49:42.932Z,74.10
2022-09-27T20:52:13.538Z,38.13
2022-09-27T20:54:42.642Z,32.17
2022-09-27T20:57:11.657Z,33.35
2022-09-27T20:59:40.858Z,27.67
2022-09-27T21:02:09.995Z,88.70
2022-09-27T21:04:41.253Z,83.53
2022-09-27T21:07:10.481Z,83.70
2022-09-27T21:09:41.144Z,31.98
2022-09-27T21:12:10.202Z,42.50
2022-09-27T21:14:39.320Z,55.90
2022-09-27T21:17:11.662Z,49.58
2022-09-27T21:19:40.885Z,30.15
2022-09-27T21:22:11.560Z,30.83
2022-09-27T21:24:42.080Z,23.05
2022-09-27T21:27:12.931Z,27.90
2022-09-27T21:29:44.265Z,23.88
2022-09-27T21:32:13.429Z,21.42
2022-09-27T21:34:42.581Z,20.25
2022-09-27T21:37:11.705Z,19.42
2022-09-27T21:39:42.339Z,21.48
2022-09-27T21:42:11.501Z,16.38
2022-09-27T21:44:40.612Z,18.77
2022-09-27T21:47:09.652Z,18.92
2022-09-27T21:49:38.737Z,18.88
2022-09-27T21:52:07.834Z,16.75
2022-09-27T21:54:36.962Z,18.50
2022-09-27T21:57:07.597Z,21.60
2022-09-27T21:59:36.658Z,27.95
2022-09-27T22:02:05.839Z,34.15
2022-09-27T22:04:34.960Z,27.83
2022-09-27T22:07:04.177Z,34.65
2022-09-27T22:09:33.374Z,36.47
2022-09-27T22:12:03.348Z,31.02
2022-09-27T22:14:36.372Z,34.67
2022-09-27T22:17:05.673Z,29.42
2022-09-27T22:19:37.474Z,25.15
2022-09-27T22:22:06.580Z,24.38
2022-09-27T22:24:36.070Z,16.80
2022-09-27T22:27:05.391Z,20.67
2022-09-27T22:29:36.189Z,24.27
2022-09-27T22:32:05.313Z,46.70
2022-09-27T22:34:45.853Z,31.13
2022-09-27T22:37:15.038Z,39.72
2022-09-27T22:39:44.064Z,88.47
2022-09-27T22:42:13.255Z,33.97
2022-09-27T22:44:43.738Z,43.80
2022-09-27T22:47:13.107Z,48.90
2022-09-27T22:49:42.210Z,48.20
2022-09-27T22:52:13.442Z,21.42
2022-09-27T22:54:42.508Z,28.40
2022-09-27T22:57:11.651Z,22.92
2022-09-27T22:59:40.841Z,35.70
2022-09-27T23:02:11.300Z,35.47
2022-09-27T23:04:40.288Z,24.10
2022-09-27T23:07:10.170Z,27.55
2022-09-27T23:09:39.381Z,19.83
2022-09-27T23:12:08.546Z,16.38
2022-09-27T23:14:42.559Z,20.20
2022-09-27T23:17:13.988Z,21.42
2022-09-27T23:19:43.131Z,18.48
2022-09-27T23:22:12.227Z,26.15
2022-09-27T23:24:41.327Z,33.05
2022-09-27T23:27:27.856Z,34.35
2022-09-27T23:29:56.909Z,32.38
2022-09-27T23:32:31.554Z,43.80
2022-09-27T23:35:00.990Z,25.17
2022-09-27T23:37:30.339Z,33.00
2022-09-27T23:39:59.491Z,33.03
2022-09-27T23:42:28.577Z,27.73
2022-09-27T23:44:57.733Z,26.95
2022-09-27T23:47:28.296Z,18.48
2022-09-27T23:49:59.481Z,21.73
2022-09-27T23:52:28.548Z,21.90
2022-09-27T23:54:57.648Z,16.67
2022-09-27T23:57:26.749Z,16.13
2022-09-27T23:59:55.810Z,14.32
